Terminal Aerodrome Forecast
Issued by NWS

Home | Current Version | Previous Version | Text Only | Print | Product List | Glossary On
Versions: 1 2 3 4 5 6 7 8 9 10 11 12 13 14 15 16 17 18 19 20 21
337
FTUS41 KBGM 241129
TAFELM
TAF
KELM 241129Z 2412/2512 00000KT P6SM SCT060 OVC080
     FM241700 19011G20KT P6SM SCT070
     FM250100 18010KT P6SM SCT045 WS020/21040KT
     FM250500 18010G20KT P6SM BKN035=

USA.gov is the U.S. government's official web portal to all federal, state and local government web resources and services.